createdAt,value
2019-04-04T00:02:14.858Z,82.00
2019-04-04T00:04:44.335Z,85.30
2019-04-04T00:07:13.799Z,83.00
2019-04-04T00:09:43.237Z,83.20
2019-04-04T00:12:12.705Z,83.60
2019-04-04T00:14:43.825Z,83.00
2019-04-04T00:17:13.234Z,83.70
2019-04-04T00:19:42.696Z,83.60
2019-04-04T00:22:12.161Z,85.70
2019-04-04T00:24:41.595Z,86.10
2019-04-04T00:27:11.207Z,87.80
2019-04-04T00:29:42.545Z,89.20
2019-04-04T00:32:12.029Z,90.20
2019-04-04T00:34:41.542Z,89.70
2019-04-04T00:37:11.262Z,90.20
2019-04-04T00:39:40.728Z,90.20
2019-04-04T00:42:10.157Z,90.60
2019-04-04T00:44:39.611Z,91.60
2019-04-04T00:47:09.109Z,92.30
2019-04-04T00:49:38.585Z,93.10
2019-04-04T00:52:09.943Z,94.10
2019-04-04T00:54:39.144Z,94.40
2019-04-04T00:57:08.600Z,95.60
2019-04-04T00:59:38.049Z,95.20
2019-04-04T01:02:07.543Z,94.90
2019-04-04T01:04:37.352Z,95.60
2019-04-04T01:07:06.788Z,96.20
2019-04-04T01:09:36.325Z,95.80
2019-04-04T01:12:05.771Z,96.30
2019-04-04T01:14:35.198Z,97.30
2019-04-04T01:17:04.855Z,97.20
2019-04-04T01:19:34.469Z,97.00
2019-04-04T01:22:03.889Z,96.90
2019-04-04T01:24:33.366Z,97.00
2019-04-04T01:27:04.146Z,96.30
2019-04-04T01:29:33.954Z,96.40
2019-04-04T01:32:03.382Z,96.90
2019-04-04T01:34:32.858Z,96.90
2019-04-04T01:37:02.368Z,97.80
2019-04-04T01:39:32.023Z,97.40
2019-04-04T01:42:01.538Z,97.90
2019-04-04T01:44:30.965Z,97.60
2019-04-04T01:47:00.422Z,97.80
2019-04-04T01:49:30.231Z,98.40
2019-04-04T01:51:59.627Z,98.70
2019-04-04T01:54:29.959Z,99.50
2019-04-04T01:57:00.163Z,99.90
2019-04-04T01:59:29.554Z,99.60
2019-04-04T02:01:58.980Z,99.90
2019-04-04T02:04:28.409Z,99.90
2019-04-04T02:06:59.168Z,99.90
2019-04-04T02:09:28.942Z,99.90
2019-04-04T02:11:58.336Z,99.90
2019-04-04T02:14:27.779Z,99.90
2019-04-04T02:16:57.217Z,99.90
2019-04-04T02:19:26.670Z,99.90
2019-04-04T02:21:56.051Z,99.90
2019-04-04T02:24:25.481Z,99.90
2019-04-04T02:26:54.926Z,99.90
2019-04-04T02:29:24.354Z,99.90
2019-04-04T02:31:56.640Z,99.90
2019-04-04T02:34:26.064Z,99.90
2019-04-04T02:36:55.550Z,99.90
2019-04-04T02:39:24.981Z,99.90
2019-04-04T02:41:54.409Z,99.90
2019-04-04T02:44:23.841Z,99.90
2019-04-04T02:46:53.301Z,99.90
2019-04-04T02:49:22.691Z,99.90
2019-04-04T02:51:52.130Z,99.90
2019-04-04T02:54:24.212Z,99.90
2019-04-04T02:56:52.677Z,99.90
2019-04-04T02:59:22.213Z,99.90
2019-04-04T03:01:52.032Z,99.90
2019-04-04T03:04:21.941Z,99.90
2019-04-04T03:06:51.365Z,99.90
2019-04-04T03:09:20.773Z,99.90
2019-04-04T03:11:53.491Z,99.90
2019-04-04T03:14:21.566Z,99.90
2019-04-04T03:16:50.991Z,99.90
2019-04-04T03:19:20.380Z,99.90
2019-04-04T03:21:49.789Z,99.90
2019-04-04T03:24:19.256Z,99.90
2019-04-04T03:26:52.198Z,99.90
2019-04-04T03:29:19.748Z,99.90
2019-04-04T03:31:49.173Z,99.90
2019-04-04T03:34:18.606Z,99.90
2019-04-04T03:36:48.030Z,99.90
2019-04-04T03:39:19.575Z,99.90
2019-04-04T03:41:48.502Z,99.90
2019-04-04T03:44:20.201Z,99.90
2019-04-04T03:46:49.032Z,99.90
2019-04-04T03:49:23.379Z,99.90
2019-04-04T03:51:49.559Z,99.90
2019-04-04T03:54:23.397Z,99.90
2019-04-04T03:56:52.982Z,99.90
2019-04-04T03:59:22.419Z,99.90
2019-04-04T04:01:51.836Z,99.90
2019-04-04T04:04:21.298Z,99.90
2019-04-04T04:06:50.705Z,99.90
2019-04-04T04:09:23.480Z,99.90
2019-04-04T04:11:52.931Z,99.90
2019-04-04T04:14:22.777Z,99.90
2019-04-04T04:16:52.316Z,99.90
2019-04-04T04:19:24.213Z,99.90
2019-04-04T04:21:52.784Z,99.90
2019-04-04T04:24:22.234Z,99.90
2019-04-04T04:26:52.053Z,99.90
2019-04-04T04:29:21.523Z,99.90
2019-04-04T04:31:50.943Z,99.90
2019-04-04T04:34:20.365Z,99.90
2019-04-04T04:36:49.841Z,99.90
2019-04-04T04:39:19.241Z,99.90
2019-04-04T04:41:53.151Z,99.90
2019-04-04T04:44:19.695Z,99.90
2019-04-04T04:46:50.265Z,99.90
2019-04-04T04:49:23.182Z,99.90
2019-04-04T04:51:51.260Z,99.90
2019-04-04T04:54:22.839Z,99.90
2019-04-04T04:56:51.788Z,99.90
2019-04-04T04:59:21.217Z,99.90
2019-04-04T05:01:51.354Z,99.90
2019-04-04T05:04:20.935Z,99.90
2019-04-04T05:06:50.720Z,99.90
2019-04-04T05:09:20.117Z,99.90
2019-04-04T05:11:50.224Z,99.90
2019-04-04T05:14:20.276Z,99.90
2019-04-04T05:16:50.001Z,99.90
2019-04-04T05:19:19.788Z,99.90
2019-04-04T05:21:49.189Z,99.90
2019-04-04T05:24:18.770Z,99.90
2019-04-04T05:26:48.377Z,99.90
2019-04-04T05:29:17.784Z,99.90
2019-04-04T05:31:49.867Z,99.90
2019-04-04T05:34:18.258Z,99.90
2019-04-04T05:36:47.688Z,99.90
2019-04-04T05:39:36.137Z,99.90
2019-04-04T05:42:05.576Z,99.90
2019-04-04T05:44:35.016Z,99.90
2019-04-04T05:47:04.445Z,99.90
2019-04-04T05:49:33.863Z,99.90
2019-04-04T05:52:03.343Z,99.90
2019-04-04T05:54:32.729Z,99.90
2019-04-04T05:57:03.426Z,99.90
2019-04-04T05:59:32.951Z,99.90
2019-04-04T06:02:02.355Z,99.90
2019-04-04T06:04:31.759Z,99.90
2019-04-04T06:07:04.065Z,99.90
2019-04-04T06:09:32.405Z,99.90
2019-04-04T06:12:01.813Z,99.90
2019-04-04T06:14:31.276Z,99.90
2019-04-04T06:17:00.689Z,99.90
2019-04-04T06:19:30.151Z,99.90
2019-04-04T06:21:59.574Z,99.90
2019-04-04T06:24:29.362Z,99.90
2019-04-04T06:26:58.957Z,99.90
2019-04-04T06:29:28.364Z,98.70
2019-04-04T06:32:00.004Z,96.50
2019-04-04T06:34:29.179Z,95.20
2019-04-04T06:36:58.614Z,95.50
2019-04-04T06:39:28.015Z,94.90
2019-04-04T06:41:57.428Z,94.40
2019-04-04T06:44:26.842Z,93.50
2019-04-04T06:46:56.314Z,92.90
2019-04-04T06:49:28.696Z,93.00
2019-04-04T06:51:57.508Z,92.70
2019-04-04T06:54:26.924Z,92.50
2019-04-04T06:56:59.048Z,90.70
2019-04-04T06:59:27.474Z,87.70
2019-04-04T07:01:56.904Z,90.10
2019-04-04T07:04:26.669Z,86.60
2019-04-04T07:06:58.946Z,84.40
2019-04-04T07:09:27.175Z,83.10
2019-04-04T07:11:56.616Z,81.50
2019-04-04T07:14:26.046Z,81.10
2019-04-04T07:16:55.565Z,82.00
2019-04-04T07:19:25.061Z,82.50
2019-04-04T07:21:54.464Z,81.10
2019-04-04T07:24:23.909Z,81.50
2019-04-04T07:26:53.389Z,80.20
2019-04-04T07:29:23.049Z,79.10
2019-04-04T07:31:54.191Z,79.70
2019-04-04T07:34:23.725Z,78.90
2019-04-04T07:36:53.134Z,80.10
2019-04-04T07:39:23.914Z,78.10
2019-04-04T07:41:53.649Z,77.30
2019-04-04T07:44:23.371Z,78.60
2019-04-04T07:46:53.397Z,78.00
2019-04-04T07:49:23.795Z,78.40
2019-04-04T07:51:53.378Z,76.30
2019-04-04T07:54:22.813Z,78.30
2019-04-04T07:56:52.225Z,78.30
2019-04-04T07:59:23.160Z,76.40
2019-04-04T08:01:53.766Z,77.40
2019-04-04T08:04:23.507Z,75.90
2019-04-04T08:06:52.911Z,77.00
2019-04-04T08:09:22.375Z,77.00
2019-04-04T08:11:51.769Z,75.30
2019-04-04T08:14:21.170Z,73.00
2019-04-04T08:16:50.586Z,75.10
2019-04-04T08:19:20.071Z,70.60
2019-04-04T08:21:49.465Z,73.50
2019-04-04T08:24:18.909Z,72.80
2019-04-04T08:26:48.698Z,72.40
2019-04-04T08:29:18.131Z,71.90
2019-04-04T08:31:48.085Z,69.10
2019-04-04T08:34:17.585Z,66.30
2019-04-04T08:36:47.290Z,66.10
2019-04-04T08:39:16.912Z,66.00
2019-04-04T08:41:46.349Z,67.10
2019-04-04T08:44:15.769Z,67.50
2019-04-04T08:46:45.202Z,67.60
2019-04-04T08:49:14.600Z,68.60
2019-04-04T08:51:44.316Z,64.50
2019-04-04T08:54:13.757Z,66.30
2019-04-04T08:56:43.275Z,62.30
2019-04-04T08:59:12.864Z,60.60
2019-04-04T09:01:42.276Z,61.30
2019-04-04T09:04:11.709Z,63.70
2019-04-04T09:06:41.181Z,62.60
2019-04-04T09:09:10.967Z,60.00
2019-04-04T09:11:40.372Z,60.50
2019-04-04T09:14:10.738Z,60.70
2019-04-04T09:16:40.187Z,60.00
2019-04-04T09:19:09.607Z,61.60
2019-04-04T09:21:39.090Z,59.90
2019-04-04T09:24:08.513Z,57.80
2019-04-04T09:26:37.943Z,57.40
2019-04-04T09:29:07.710Z,55.80
2019-04-04T09:31:37.321Z,56.40
2019-04-04T09:34:06.752Z,56.40
2019-04-04T09:36:36.158Z,57.80
2019-04-04T09:39:07.376Z,57.70
2019-04-04T09:41:37.190Z,56.80
2019-04-04T09:44:06.632Z,57.00
2019-04-04T09:46:36.054Z,58.50
2019-04-04T09:49:05.557Z,57.70
2019-04-04T09:51:35.015Z,56.90
2019-04-04T09:54:04.501Z,55.30
2019-04-04T09:56:34.226Z,55.10
2019-04-04T09:59:03.872Z,54.20
2019-04-04T10:01:33.313Z,54.90
2019-04-04T10:04:02.725Z,53.20
2019-04-04T10:06:32.158Z,51.20
2019-04-04T10:09:14.770Z,50.70
2019-04-04T10:11:32.838Z,50.60
2019-04-04T10:14:04.102Z,51.60
2019-04-04T10:16:33.739Z,50.60
2019-04-04T10:19:03.199Z,51.10
2019-04-04T10:21:32.662Z,49.70
2019-04-04T10:24:02.103Z,48.80
2019-04-04T10:26:31.537Z,47.30
2019-04-04T10:29:00.944Z,48.40
2019-04-04T10:31:30.388Z,48.40
2019-04-04T10:33:59.869Z,51.00
2019-04-04T10:36:29.302Z,47.90
2019-04-04T10:38:59.095Z,48.00
2019-04-04T10:41:28.587Z,47.40
2019-04-04T10:43:58.009Z,46.20
2019-04-04T10:46:27.425Z,49.20
2019-04-04T10:48:56.858Z,49.50
2019-04-04T10:51:26.271Z,46.70
2019-04-04T10:53:56.033Z,44.60
2019-04-04T10:56:25.846Z,46.80
2019-04-04T10:58:55.252Z,44.30
2019-04-04T11:01:24.669Z,44.80
2019-04-04T11:03:54.101Z,45.50
2019-04-04T11:06:23.575Z,46.80
2019-04-04T11:08:53.286Z,46.40
2019-04-04T11:11:22.717Z,49.10
2019-04-04T11:13:52.142Z,46.00
2019-04-04T11:16:30.148Z,43.40
2019-04-04T11:18:52.682Z,44.40
2019-04-04T11:21:22.096Z,44.90
2019-04-04T11:23:51.554Z,43.70
2019-04-04T11:26:20.954Z,45.30
2019-04-04T11:28:50.413Z,44.90
2019-04-04T11:31:19.828Z,45.70
2019-04-04T11:33:49.259Z,45.50
2019-04-04T11:36:18.679Z,44.30
2019-04-04T11:38:48.453Z,44.10
2019-04-04T11:41:17.901Z,43.10
2019-04-04T11:43:47.318Z,44.10
2019-04-04T11:46:16.729Z,44.60
2019-04-04T11:48:46.497Z,44.90
2019-04-04T11:51:16.291Z,44.50
2019-04-04T11:53:45.720Z,44.00
2019-04-04T11:56:15.149Z,43.60
2019-04-04T11:58:44.593Z,43.50
2019-04-04T12:01:14.477Z,45.30
2019-04-04T12:03:43.891Z,42.60
2019-04-04T12:06:13.354Z,41.70
2019-04-04T12:08:42.760Z,42.70
2019-04-04T12:11:12.213Z,44.10
2019-04-04T12:13:41.632Z,43.60
2019-04-04T12:16:11.077Z,40.60
2019-04-04T12:18:40.534Z,40.60
2019-04-04T12:21:10.208Z,41.60
2019-04-04T12:23:40.008Z,41.30
2019-04-04T12:26:09.749Z,41.60
2019-04-04T12:28:39.182Z,42.90
2019-04-04T12:31:08.962Z,42.90
2019-04-04T12:33:38.793Z,41.00
2019-04-04T12:36:08.226Z,40.80
2019-04-04T12:38:41.017Z,41.60
2019-04-04T12:41:12.346Z,41.50
2019-04-04T12:43:41.799Z,43.50
2019-04-04T12:46:11.378Z,42.70
2019-04-04T12:48:40.747Z,42.00
2019-04-04T12:51:31.825Z,40.60
2019-04-04T12:54:01.312Z,40.30
2019-04-04T12:56:31.291Z,40.80
2019-04-04T12:59:00.993Z,43.40
2019-04-04T13:01:30.482Z,42.70
2019-04-04T13:03:59.916Z,42.20
2019-04-04T13:06:29.477Z,41.20
2019-04-04T13:08:59.426Z,42.10
2019-04-04T13:11:29.076Z,42.40
2019-04-04T13:13:58.851Z,42.90
2019-04-04T13:16:28.676Z,42.60
2019-04-04T13:18:58.281Z,43.20
2019-04-04T13:21:27.743Z,43.80
2019-04-04T13:23:57.514Z,45.10
2019-04-04T13:26:26.955Z,46.70
2019-04-04T13:28:56.386Z,43.90
2019-04-04T13:31:26.202Z,43.60
2019-04-04T13:33:55.702Z,43.30
2019-04-04T13:36:25.232Z,42.40
2019-04-04T13:38:55.189Z,43.70
2019-04-04T13:41:24.915Z,43.10
2019-04-04T13:43:54.441Z,42.80
2019-04-04T13:46:25.806Z,43.70
2019-04-04T13:48:56.662Z,44.10
2019-04-04T13:51:26.434Z,43.80
2019-04-04T13:53:55.888Z,44.40
2019-04-04T13:56:25.399Z,43.90
2019-04-04T13:58:54.939Z,43.50
2019-04-04T14:01:25.535Z,44.50
2019-04-04T14:03:54.946Z,45.00
2019-04-04T14:06:24.675Z,44.00
2019-04-04T14:08:54.665Z,44.30
2019-04-04T14:11:24.148Z,43.30
2019-04-04T14:13:53.562Z,42.90
2019-04-04T14:16:23.010Z,43.00
2019-04-04T14:18:52.518Z,43.20
2019-04-04T14:21:21.922Z,44.60
2019-04-04T14:23:52.983Z,44.60
2019-04-04T14:26:23.010Z,45.10
2019-04-04T14:28:52.615Z,45.00
2019-04-04T14:31:22.134Z,44.50
2019-04-04T14:33:51.679Z,45.40
2019-04-04T14:36:21.110Z,46.20
2019-04-04T14:38:50.626Z,45.00
2019-04-04T14:41:20.166Z,46.00
2019-04-04T14:43:49.578Z,47.10
2019-04-04T14:46:19.384Z,45.70
2019-04-04T14:48:48.866Z,46.20
2019-04-04T14:51:18.286Z,46.80
2019-04-04T14:53:48.108Z,47.30
2019-04-04T14:56:17.550Z,47.30
2019-04-04T14:58:46.957Z,47.20
2019-04-04T15:01:16.402Z,47.90
2019-04-04T15:03:45.948Z,47.90
2019-04-04T15:06:15.485Z,48.40
2019-04-04T15:08:44.904Z,49.70
2019-04-04T15:11:23.960Z,47.90
2019-04-04T15:13:45.704Z,48.00
2019-04-04T15:16:16.762Z,48.40
2019-04-04T15:18:46.382Z,49.60
2019-04-04T15:21:16.430Z,49.10
2019-04-04T15:23:45.970Z,50.00
2019-04-04T15:26:15.426Z,49.00
2019-04-04T15:28:44.855Z,49.50
2019-04-04T15:31:16.940Z,49.50
2019-04-04T15:33:46.344Z,49.20
2019-04-04T15:36:15.948Z,48.50
2019-04-04T15:38:45.302Z,48.60
2019-04-04T15:41:14.837Z,48.50
2019-04-04T15:43:44.336Z,48.80
2019-04-04T15:46:13.831Z,49.20
2019-04-04T15:48:43.235Z,48.70
2019-04-04T15:51:12.678Z,50.20
2019-04-04T15:53:42.470Z,49.70
2019-04-04T15:56:11.927Z,49.70
2019-04-04T15:58:41.348Z,48.90
2019-04-04T16:01:10.830Z,49.70
2019-04-04T16:03:40.357Z,49.40
2019-04-04T16:06:09.820Z,49.80
2019-04-04T16:08:39.303Z,50.10
2019-04-04T16:11:08.786Z,49.20
2019-04-04T16:13:38.201Z,48.60
2019-04-04T16:16:08.448Z,49.50
2019-04-04T16:18:37.939Z,48.90
2019-04-04T16:21:07.421Z,50.20
2019-04-04T16:23:36.878Z,49.20
2019-04-04T16:26:06.669Z,49.10
2019-04-04T16:28:36.230Z,49.80
2019-04-04T16:31:05.783Z,49.40
2019-04-04T16:33:35.217Z,49.60
2019-04-04T16:36:05.579Z,50.20
2019-04-04T16:38:35.570Z,49.40
2019-04-04T16:41:05.259Z,49.70
2019-04-04T16:43:34.728Z,50.70
2019-04-04T16:46:04.138Z,50.10
2019-04-04T16:48:33.613Z,49.90
2019-04-04T16:51:03.120Z,50.90
2019-04-04T16:53:32.562Z,50.90
2019-04-04T16:56:02.348Z,51.30
2019-04-04T16:58:31.834Z,50.60
2019-04-04T17:01:01.574Z,51.00
2019-04-04T17:03:31.013Z,51.30
2019-04-04T17:06:00.802Z,51.80
2019-04-04T17:08:30.262Z,52.30
2019-04-04T17:10:59.691Z,52.10
2019-04-04T17:13:29.202Z,51.80
2019-04-04T17:15:58.615Z,52.10
2019-04-04T17:18:28.038Z,53.60
2019-04-04T17:20:57.463Z,52.30
2019-04-04T17:23:27.225Z,52.60
2019-04-04T17:25:56.638Z,52.60
2019-04-04T17:28:26.096Z,54.30
2019-04-04T17:30:55.780Z,53.30
2019-04-04T17:33:25.286Z,53.70
2019-04-04T17:35:54.799Z,53.60
2019-04-04T17:38:24.234Z,54.20
2019-04-04T17:40:53.642Z,54.30
2019-04-04T17:43:23.194Z,55.30
2019-04-04T17:45:52.911Z,55.00
2019-04-04T17:48:22.381Z,55.90
2019-04-04T17:50:51.861Z,55.10
2019-04-04T17:53:21.690Z,56.00
2019-04-04T17:55:51.595Z,56.50
2019-04-04T17:58:22.147Z,55.80
2019-04-04T18:00:51.989Z,56.80
2019-04-04T18:03:21.442Z,57.20
2019-04-04T18:05:50.894Z,57.70
2019-04-04T18:08:20.374Z,57.30
2019-04-04T18:10:49.882Z,57.60
2019-04-04T18:13:19.393Z,58.10
2019-04-04T18:15:49.348Z,58.00
2019-04-04T18:18:19.150Z,59.30
2019-04-04T18:20:49.287Z,60.20
2019-04-04T18:23:19.085Z,60.40
2019-04-04T18:25:48.576Z,60.20
2019-04-04T18:28:19.969Z,60.00
2019-04-04T18:30:49.798Z,61.00
2019-04-04T18:33:19.961Z,62.00
2019-04-04T18:35:49.900Z,62.90
2019-04-04T18:38:19.802Z,63.50
2019-04-04T18:40:49.694Z,63.10
2019-04-04T18:43:19.247Z,64.10
2019-04-04T18:45:49.085Z,65.40
2019-04-04T18:48:19.308Z,65.60
2019-04-04T18:50:48.927Z,65.50
2019-04-04T18:53:18.856Z,66.30
2019-04-04T18:55:48.326Z,66.30
2019-04-04T18:58:17.797Z,66.50
2019-04-04T19:00:47.293Z,67.30
2019-04-04T19:03:17.512Z,68.40
2019-04-04T19:05:47.014Z,68.70
2019-04-04T19:08:16.961Z,68.80
2019-04-04T19:10:47.380Z,69.00
2019-04-04T19:13:16.822Z,68.80
2019-04-04T19:15:46.749Z,68.80
2019-04-04T19:18:16.231Z,69.20
2019-04-04T19:20:45.685Z,70.90
2019-04-04T19:23:15.598Z,71.50
2019-04-04T19:25:46.417Z,73.30
2019-04-04T19:28:15.974Z,73.50
2019-04-04T19:30:45.637Z,74.70
2019-04-04T19:33:15.168Z,75.50
2019-04-04T19:35:45.323Z,76.90
2019-04-04T19:38:15.165Z,78.40
2019-04-04T19:40:45.005Z,80.30
2019-04-04T19:43:18.234Z,82.20
2019-04-04T19:45:45.541Z,82.80
2019-04-04T19:48:15.362Z,84.50
2019-04-04T19:50:44.757Z,86.10
2019-04-04T19:53:14.214Z,87.40
2019-04-04T19:55:43.588Z,88.60
2019-04-04T19:58:13.057Z,89.80
2019-04-04T20:00:42.481Z,89.80
2019-04-04T20:03:11.969Z,90.90
2019-04-04T20:05:44.269Z,91.40
2019-04-04T20:08:12.453Z,92.00
2019-04-04T20:10:41.853Z,92.40
2019-04-04T20:13:11.409Z,92.80
2019-04-04T20:15:40.844Z,93.10
2019-04-04T20:18:10.641Z,92.40
2019-04-04T20:20:40.503Z,93.20
2019-04-04T20:23:10.042Z,92.40
2019-04-04T20:25:39.396Z,92.70
2019-04-04T20:28:08.829Z,92.00
2019-04-04T20:30:39.504Z,92.30
2019-04-04T20:33:08.991Z,93.60
2019-04-04T20:35:38.403Z,93.70
2019-04-04T20:38:07.964Z,93.70
2019-04-04T20:40:37.448Z,93.80
2019-04-04T20:43:06.893Z,94.80
2019-04-04T20:45:36.724Z,95.10
2019-04-04T20:48:06.270Z,95.90
2019-04-04T20:50:36.345Z,96.60
2019-04-04T20:53:05.758Z,96.60
2019-04-04T20:55:35.190Z,96.20
2019-04-04T20:58:04.615Z,95.70
2019-04-04T21:00:34.122Z,96.00
2019-04-04T21:03:03.553Z,96.30
2019-04-04T21:05:32.953Z,97.10
2019-04-04T21:08:02.379Z,97.40
2019-04-04T21:10:32.885Z,98.50
2019-04-04T21:13:02.289Z,98.30
2019-04-04T21:15:31.750Z,97.50
2019-04-04T21:18:01.368Z,97.20
2019-04-04T21:20:30.882Z,97.60
2019-04-04T21:23:00.296Z,97.20
2019-04-04T21:25:30.083Z,98.00
2019-04-04T21:28:01.825Z,98.60
2019-04-04T21:30:31.269Z,98.60
2019-04-04T21:33:00.760Z,99.30
2019-04-04T21:35:30.225Z,99.20
2019-04-04T21:37:59.760Z,99.80
2019-04-04T21:40:29.170Z,99.90
2019-04-04T21:42:58.575Z,99.90
2019-04-04T21:45:27.993Z,99.90
2019-04-04T21:47:57.502Z,99.90
2019-04-04T21:50:27.103Z,99.90
2019-04-04T21:52:56.857Z,99.90
2019-04-04T21:55:26.337Z,99.90
2019-04-04T21:57:55.890Z,99.90
2019-04-04T22:00:27.228Z,99.90
2019-04-04T22:02:56.688Z,99.90
2019-04-04T22:05:26.121Z,99.90
2019-04-04T22:07:55.901Z,99.90
2019-04-04T22:10:25.306Z,99.90
2019-04-04T22:12:54.771Z,99.90
2019-04-04T22:15:24.546Z,99.90
2019-04-04T22:17:53.993Z,99.90
2019-04-04T22:20:23.428Z,99.90
2019-04-04T22:22:52.856Z,99.90
2019-04-04T22:25:22.298Z,99.90
2019-04-04T22:27:51.766Z,99.90
2019-04-04T22:30:21.402Z,99.90
2019-04-04T22:32:51.169Z,99.90
2019-04-04T22:35:20.562Z,99.90
2019-04-04T22:37:50.033Z,99.90
2019-04-04T22:40:19.439Z,99.90
2019-04-04T22:42:48.913Z,99.90
2019-04-04T22:45:18.334Z,99.90
2019-04-04T22:47:47.773Z,99.90
2019-04-04T22:50:17.204Z,99.90
2019-04-04T22:52:46.665Z,99.90
2019-04-04T22:55:16.094Z,99.90
2019-04-04T22:57:45.506Z,99.90
2019-04-04T23:00:15.400Z,99.90
2019-04-04T23:02:44.826Z,99.90
2019-04-04T23:05:14.225Z,99.90
2019-04-04T23:07:43.642Z,99.90
2019-04-04T23:10:13.280Z,99.90
2019-04-04T23:12:42.727Z,99.90
2019-04-04T23:15:12.621Z,99.90
2019-04-04T23:17:42.033Z,99.90
2019-04-04T23:20:11.517Z,99.90
2019-04-04T23:22:52.261Z,99.90
2019-04-04T23:25:12.006Z,99.90
2019-04-04T23:27:41.419Z,99.90
2019-04-04T23:30:10.963Z,99.90
2019-04-04T23:32:40.437Z,99.90
2019-04-04T23:35:10.370Z,99.90
2019-04-04T23:37:39.801Z,99.90
2019-04-04T23:40:09.235Z,99.90
2019-04-04T23:42:38.654Z,99.90
2019-04-04T23:45:08.178Z,99.90
2019-04-04T23:47:43.227Z,99.90
2019-04-04T23:50:08.665Z,99.90
2019-04-04T23:52:38.111Z,99.90
2019-04-04T23:55:07.873Z,99.90
2019-04-04T23:57:37.266Z,99.90
